Página principal
METAR-TAF:

METAR-TAF

Aeroportos :

Aeroporto de Palma de Maiorca-Son Sant Joan

Palma de Maiorca, Espanha

latitude: 39-33N, longitude: 002-44E, altura: 4 m

Observação actual do tempo

O boletim foi feito há 34 minutos, às 20:00 UTC
Vento 5 kt de sudoeste
Temperatura 21°C
Humidade 78%
Pressão 1018 hPa
Visibilidade 10 km ou mais
sem nuvens abaixo de 1500 metros e sem cumulonimbus

METAR: LEPA 162000Z 22005KT CAVOK 21/17 Q1018 NOSIG

Hora: 22:34 (20:34 UTC)

Previsão

O boletim foi feito há 3 horas e 34 minutos, às 17:00 UTC
Previsão válida de 16 às 18 UTC a 17 às 18 UTC
Vento 10 kt de sudoeste
Visibilidade 10 km ou mais
Poucas nuvensa uma altura de 3000 ft
Tornando-se
de 16 às 19 UTC a 16 às 21 UTC
Vento 3 kt com direcção variável
Tornando-se
de 17 às 08 UTC a 17 às 10 UTC
Vento 12 kt de su-sudoeste

TAF: LEPA 161700Z 1618/1718 22010KT 9999 FEW030 TX29/1713Z TN16/1706Z BECMG 1619/1621 VRB03KT BECMG 1708/1710 21012KT

Observações e previsões do tempo de mais de 4000 aeroportos (mensagens METAR e TAF).

As estações disponíveis são os pontos amarelos e vermelhos sobre o mapa.

Mova o rato sobre o mapa para ver o nome da estação.

Depois clique no ponto para visualizar as observações e previsões meteorológicas.

Para alterar o mapa : clique nos botões verdes com uma cruz preta para aumentar o zoom; no botão verde com uma pitada de zoom; ou nas setas verdes para mapas adjacentes.


METAR-TAF: